»·PEaware :: UAL1942 KLAS-KLAX

UAL1942 :: KLAS-KLAX

FLIGHT INFORMATION

Flight Status: Arrived
Operator:
United Airlines
More flights by this operator :: More flights under this callsign
Pilot: Matthew M. (8235)
Aircraft: BOEING 757-300
(B753)
More flights by this aircraft type
Origin: KLAS McCarran Intl
United States
Destination: KLAX Los Angeles Intl
United States
More flights between these airports :: More routes between these airports
Route: +BOACH8 RIKII SHTNR ANJLL4
File this flight plan on PilotEdge
Remarks:
Altitude:
(Current/Filed)
26,000ft
Speed:
(Current/Filed)
460kts
Departed: 14-Mar-20 06:42 PM
Arrived: 14-Mar-20 07:32 PM
Distance/Time
Traveled:
205nm/0:50
Distance/Time
To Go:
Arrived

Flight Plot

Page will automatically refresh every two minutes.

Flight plan parsing failed; only flown route is shown


Map Options




Map Legend


Flown Route
Filed Route
Departure Airport
Arrival Airport
Navaid (VOR, NDB)
Fix

Horizontal Profiles

Position Reports

Time Latitude Longitude Heading Altitude Ground
Speed
14-Mar-20 18:19 36.082675 -115.138349 223 2123ft 0kts
14-Mar-20 18:20 36.082675 -115.138349 223 2123ft 0kts
14-Mar-20 18:21 36.082675 -115.138349 223 2123ft 0kts
14-Mar-20 18:22 36.082675 -115.138349 223 2123ft 0kts
14-Mar-20 18:23 36.082675 -115.138349 223 2123ft 0kts
14-Mar-20 18:24 36.082675 -115.138349 223 2123ft 0kts
14-Mar-20 18:25 36.082675 -115.138349 223 2123ft 0kts
14-Mar-20 18:26 36.082675 -115.138349 223 2123ft 0kts
14-Mar-20 18:27 36.082675 -115.138349 223 2123ft 0kts
14-Mar-20 18:28 36.082675 -115.138349 223 2123ft 0kts
14-Mar-20 18:30 36.082675 -115.138349 223 2123ft 0kts
14-Mar-20 18:31 36.082675 -115.138349 223 2123ft 0kts
14-Mar-20 18:32 36.082717 -115.138299 223 2123ft 2kts
14-Mar-20 18:33 36.083151 -115.137787 223 2123ft 2kts
14-Mar-20 18:34 36.083275 -115.137641 223 2123ft 0kts
14-Mar-20 18:35 36.083251 -115.137689 239 2123ft 1kts
14-Mar-20 18:36 36.084319 -115.137543 47 2123ft 9kts
14-Mar-20 18:37 36.083251 -115.133043 157 2123ft 15kts
14-Mar-20 18:38 36.079865 -115.132946 180 2123ft 11kts
14-Mar-20 18:39 36.078279 -115.129855 89 2123ft 18kts
14-Mar-20 18:40 36.078137 -115.122619 118 2123ft 19kts
14-Mar-20 18:41 36.076439 -115.121627 269 2123ft 8kts
14-Mar-20 18:42 36.076482 -115.155190 264 2530ft 166kts
14-Mar-20 18:43 36.076180 -115.217873 266 3937ft 220kts
14-Mar-20 18:44 36.036552 -115.270981 202 6880ft 244kts
14-Mar-20 18:45 35.971562 -115.300741 194 7004ft 260kts
14-Mar-20 18:46 35.901153 -115.309888 189 10238ft 262kts
14-Mar-20 18:47 35.817785 -115.310466 179 12261ft 335kts
14-Mar-20 18:48 35.723301 -115.299817 179 15885ft 350kts
14-Mar-20 18:48 35.641246 -115.295920 186 18565ft 360kts
14-Mar-20 18:49 35.540261 -115.300126 186 19013ft 362kts
14-Mar-20 18:51 35.433879 -115.354504 212 22140ft 366kts
14-Mar-20 18:51 35.359828 -115.407816 213 24304ft 377kts
14-Mar-20 18:52 35.269113 -115.473505 213 26050ft 384kts
14-Mar-20 18:54 35.164798 -115.548906 213 26055ft 379kts
14-Mar-20 18:54 35.100077 -115.610210 227 26087ft 376kts
14-Mar-20 18:55 35.051590 -115.671602 226 26128ft 376kts
14-Mar-20 18:56 34.975251 -115.768805 227 26129ft 378kts
14-Mar-20 18:57 34.905415 -115.857659 227 26087ft 384kts
14-Mar-20 18:58 34.850512 -115.927369 227 26148ft 385kts
14-Mar-20 18:59 34.783497 -116.012261 227 26147ft 384kts
14-Mar-20 19:00 34.717967 -116.095712 228 26146ft 384kts
14-Mar-20 19:01 34.651765 -116.179917 228 26144ft 384kts
14-Mar-20 19:02 34.583817 -116.266127 228 26137ft 384kts
14-Mar-20 19:03 34.511863 -116.357184 228 26143ft 384kts
14-Mar-20 19:04 34.441103 -116.446491 228 26130ft 384kts
14-Mar-20 19:05 34.383414 -116.558978 243 25649ft 373kts
14-Mar-20 19:06 34.340611 -116.662227 243 24256ft 363kts
14-Mar-20 19:07 34.302601 -116.756340 244 22835ft 357kts
14-Mar-20 19:08 34.267303 -116.843973 244 21488ft 351kts
14-Mar-20 19:09 34.231053 -116.933734 244 20106ft 345kts
14-Mar-20 19:10 34.196584 -117.037120 251 18549ft 334kts
14-Mar-20 19:11 34.170630 -117.132833 250 17266ft 324kts
14-Mar-20 19:12 34.142847 -117.234130 250 15885ft 321kts
14-Mar-20 19:13 34.117584 -117.325791 250 14634ft 316kts
14-Mar-20 19:14 34.093065 -117.419128 252 13259ft 311kts
14-Mar-20 19:15 34.070099 -117.507263 246 11871ft 304kts
14-Mar-20 19:16 34.042538 -117.583758 246 10854ft 291kts
14-Mar-20 19:17 34.018005 -117.651774 246 10131ft 274kts
14-Mar-20 19:18 34.003197 -117.724228 261 9545ft 260kts
14-Mar-20 19:19 33.996023 -117.796006 261 8634ft 254kts
14-Mar-20 19:20 33.989295 -117.864311 261 7725ft 252kts
14-Mar-20 19:21 33.982739 -117.931026 262 6848ft 249kts
14-Mar-20 19:22 33.976398 -117.995445 262 6028ft 247kts
14-Mar-20 19:23 33.970347 -118.056647 262 5271ft 246kts
14-Mar-20 19:24 33.963467 -118.125642 263 4311ft 245kts
14-Mar-20 19:25 33.956943 -118.190164 264 3273ft 222kts
14-Mar-20 19:26 33.950955 -118.249892 264 2378ft 209kts
14-Mar-20 19:27 33.945795 -118.300425 264 1471ft 156kts
14-Mar-20 19:28 33.941678 -118.340639 263 825ft 139kts
14-Mar-20 19:29 33.937702 -118.379456 263 219ft 136kts
14-Mar-20 19:30 33.934983 -118.406119 263 129ft 50kts
14-Mar-20 19:31 33.935977 -118.412522 338 130ft 14kts
14-Mar-20 19:32 33.937694 -118.410525 83 130ft 14kts
14-Mar-20 19:33 33.938469 -118.402999 83 123ft 16kts
14-Mar-20 19:34 33.940050 -118.400031 37 120ft 6kts
14-Mar-20 19:35 33.940313 -118.399806 34 119ft 0kts

Navigation Log

Ident Type
Flight plan parsing failed, navigation log unavailable